Time;durP1;ratioP1;P1;durP2;ratioP2;P2;SDS_P1;SDS_P2;PMS_P1;PMS_P2;Temp;Humidity;BMP_temperature;BMP_pressure;BME280_temperature;BME280_humidity;BME280_pressure;Samples;Min_cycle;Max_cycle;Signal;HPM_P1;HPM_P2
2024/01/02 00:01:56;;;;;;;23.50;4.13;;;4.50;99.90;;;;;;5109122;27;20035;-82
2024/01/02 00:04:24;;;;;;;24.85;4.25;;;;;;;;;;5105746;27;20038;-81
2024/01/02 00:06:50;;;;;;;17.27;4.20;;;4.30;99.90;;;;;;5129444;27;20046;-82
2024/01/02 00:09:16;;;;;;;23.63;5.90;;;;;;;;;;5109856;27;20570;-84
2024/01/02 00:11:43;;;;;;;28.50;7.70;;;4.30;99.90;;;;;;5110706;27;20122;-84
2024/01/02 00:14:09;;;;;;;19.67;3.47;;;;;;;;;;5112029;27;20527;-83
2024/01/02 00:16:35;;;;;;;22.05;3.65;;;;;;;;;;5113778;27;20053;-84
2024/01/02 00:19:01;;;;;;;18.77;3.88;;;;;;;;;;5124859;27;20660;-83
2024/01/02 00:21:28;;;;;;;17.55;4.30;;;;;;;;;;5098940;27;20074;-82
2024/01/02 00:23:54;;;;;;;21.52;5.18;;;;;;;;;;5109202;27;20046;-84
2024/01/02 00:26:20;;;;;;;20.48;4.70;;;;;;;;;;5091826;27;20139;-84
2024/01/02 00:28:46;;;;;;;22.75;3.42;;;;;;;;;;5091444;27;20089;-83
2024/01/02 00:31:13;;;;;;;20.90;4.38;;;;;;;;;;5108512;27;20103;-83
2024/01/02 00:33:39;;;;;;;20.60;3.92;;;;;;;;;;5108565;27;20043;-82
2024/01/02 00:36:05;;;;;;;22.05;4.35;;;;;;;;;;5085852;27;20048;-83
2024/01/02 00:38:33;;;;;;;25.35;4.22;;;;;;;;;;5105379;27;20039;-83
2024/01/02 00:40:59;;;;;;;12.07;3.00;;;4.40;99.90;;;;;;5093294;27;20039;-83
2024/01/02 00:43:25;;;;;;;19.40;4.28;;;;;;;;;;5091312;27;20066;-83
2024/01/02 00:45:51;;;;;;;19.80;3.08;;;;;;;;;;5108741;27;20634;-83
2024/01/02 00:48:17;;;;;;;19.65;3.40;;;;;;;;;;5106239;27;20078;-84
2024/01/02 00:50:43;;;;;;;16.88;3.60;;;;;;;;;;5097172;27;20171;-82
2024/01/02 00:53:09;;;;;;;15.65;3.53;;;;;;;;;;5090693;27;20100;-83
2024/01/02 00:55:35;;;;;;;14.68;2.85;;;;;;;;;;5090764;27;20045;-82
2024/01/02 00:58:03;;;;;;;17.17;3.60;;;;;;;;;;5121641;27;20053;-84
2024/01/02 01:00:29;;;;;;;11.98;3.22;;;;;;;;;;5109909;27;20100;-83
2024/01/02 01:02:55;;;;;;;12.65;2.38;;;;;;;;;;5102833;27;20567;-83
2024/01/02 01:05:21;;;;;;;17.73;3.50;;;;;;;;;;5107243;27;20071;-83
2024/01/02 01:07:47;;;;;;;12.60;2.60;;;;;;;;;;5102195;27;20085;-84
2024/01/02 01:10:16;;;;;;;22.50;4.30;;;;;;;;;;5109530;27;20044;-85
2024/01/02 01:12:44;;;;;;;13.45;2.90;;;;;;;;;;5126688;27;20039;-84
2024/01/02 01:15:10;;;;;;;12.15;2.75;;;4.70;99.90;;;;;;5126595;27;20043;-83
2024/01/02 01:17:38;;;;;;;14.25;2.78;;;;;;;;;;5109208;27;20046;-84
2024/01/02 01:20:04;;;;;;;16.40;3.42;;;;;;;;;;5120668;27;20455;-83
2024/01/02 01:22:30;;;;;;;13.88;2.33;;;;;;;;;;5106967;27;20043;-83
2024/01/02 01:24:56;;;;;;;13.25;2.30;;;;;;;;;;5108738;27;20416;-83
2024/01/02 01:27:22;;;;;;;23.73;3.10;;;4.90;99.90;;;;;;5126529;27;20049;-84
2024/01/02 01:29:48;;;;;;;21.80;4.30;;;;;;;;;;5109731;27;20043;-82
2024/01/02 01:32:14;;;;;;;16.92;3.33;;;;;;;;;;5109631;27;20049;-85
2024/01/02 01:34:41;;;;;;;14.73;2.83;;;;;;;;;;5128130;27;20050;-84
2024/01/02 01:37:10;;;;;;;17.27;3.60;;;5.10;99.90;;;;;;5114641;27;20125;-83
2024/01/02 01:39:36;;;;;;;30.73;6.93;;;;;;;;;;5109269;27;20042;-87
2024/01/02 01:42:02;;;;;;;16.88;4.30;;;;;;;;;;5120828;27;20043;-84
2024/01/02 01:44:28;;;;;;;20.90;3.38;;;;;;;;;;5106602;27;20035;-85
2024/01/02 01:46:54;;;;;;;21.52;4.03;;;;;;;;;;5089178;27;20518;-83
2024/01/02 01:49:21;;;;;;;25.13;4.28;;;5.20;99.90;;;;;;5123484;27;20455;-83
2024/01/02 01:51:47;;;;;;;23.48;4.25;;;;;;;;;;5106327;27;20036;-87
2024/01/02 01:54:15;;;;;;;25.50;5.07;;;5.10;99.90;;;;;;5089736;27;20134;-83
2024/01/02 01:56:42;;;;;;;26.90;5.28;;;5.10;99.90;;;;;;5089935;27;20121;-84
2024/01/02 01:59:09;;;;;;;35.90;7.93;;;5.10;99.90;;;;;;5121629;27;20570;-84
2024/01/02 02:01:35;;;;;;;30.38;8.00;;;;;;;;;;5094530;27;20039;-84
2024/01/02 02:04:02;;;;;;;32.10;7.32;;;;;;;;;;5103300;27;20860;-84
2024/01/02 02:06:28;;;;;;;34.75;10.02;;;;;;;;;;5104633;27;20377;-82
2024/01/02 02:08:54;;;;;;;34.08;7.85;;;;;;;;;;5103005;27;20088;-84
2024/01/02 02:11:21;;;;;;;47.65;10.05;;;;;;;;;;5119051;27;20045;-85
2024/01/02 02:13:50;;;;;;;29.52;8.15;;;5.30;99.90;;;;;;5115931;27;20091;-84
2024/01/02 02:16:16;;;;;;;26.00;6.80;;;5.30;99.90;;;;;;5113284;27;20057;-85
2024/01/02 02:18:42;;;;;;;36.70;7.85;;;4.50;99.90;;;;;;5105231;27;20051;-83
2024/01/02 02:21:08;;;;;;;35.25;7.68;;;;;;;;;;5111298;27;20526;-85
2024/01/02 02:23:35;;;;;;;33.70;8.30;;;5.30;99.90;;;;;;5126872;27;20046;-84
2024/01/02 02:26:01;;;;;;;42.20;9.32;;;;;;;;;;5116706;27;20034;-86
2024/01/02 02:28:27;;;;;;;32.55;10.20;;;;;;;;;;5088987;27;20043;-85
2024/01/02 02:30:53;;;;;;;37.65;10.38;;;;;;;;;;5090983;27;20042;-86
2024/01/02 02:33:19;;;;;;;34.88;10.50;;;;;;;;;;5094924;27;20071;-84
2024/01/02 02:35:45;;;;;;;46.17;13.30;;;;;;;;;;5106580;27;20121;-83
2024/01/02 02:38:11;;;;;;;35.03;12.10;;;;;;;;;;5090054;27;20043;-84
2024/01/02 02:40:38;;;;;;;35.38;11.50;;;;;;;;;;5090804;27;20672;-84
2024/01/02 02:43:04;;;;;;;31.83;11.25;;;;;;;;;;5088545;27;20780;-84
2024/01/02 02:45:34;;;;;;;48.25;14.68;;;5.40;99.90;;;;;;5104634;27;20087;-84
2024/01/02 02:48:00;;;;;;;36.50;11.80;;;;;;;;;;5087856;27;20120;-84
2024/01/02 02:50:26;;;;;;;44.35;13.15;;;;;;;;;;5094760;27;20047;-84
2024/01/02 02:52:55;;;;;;;40.13;11.60;;;8.00;99.90;;;;;;5121873;27;20069;-84
2024/01/02 02:55:21;;;;;;;33.03;11.43;;;;;;;;;;5095469;27;20043;-85
2024/01/02 02:57:47;;;;;;;46.67;13.45;;;;;;;;;;5108597;27;20046;-84
2024/01/02 03:00:13;;;;;;;39.45;13.68;;;;;;;;;;5106355;27;20090;-83
2024/01/02 03:02:39;;;;;;;40.85;12.45;;;;;;;;;;5096704;27;20117;-85
2024/01/02 03:05:06;;;;;;;51.22;16.40;;;4.20;99.90;;;;;;5124729;27;20035;-85
2024/01/02 03:07:32;;;;;;;32.45;12.18;;;;;;;;;;5108195;27;20050;-85
2024/01/02 03:09:58;;;;;;;50.38;14.45;;;;;;;;;;5107664;27;20059;-87
2024/01/02 03:12:24;;;;;;;53.05;14.73;;;;;;;;;;5102361;28;20046;-85
2024/01/02 03:14:50;;;;;;;39.83;12.85;;;;;;;;;;5104952;28;20621;-85
2024/01/02 03:17:16;;;;;;;41.63;13.75;;;;;;;;;;5104908;28;20607;-86
2024/01/02 03:19:42;;;;;;;51.63;12.77;;;;;;;;;;5088327;28;20043;-85
2024/01/02 03:22:09;;;;;;;33.58;11.05;;;;;;;;;;5105480;27;20122;-84
2024/01/02 03:24:35;;;;;;;36.20;11.30;;;;;;;;;;5087914;27;20115;-85
2024/01/02 03:27:02;;;;;;;45.75;13.43;;;;;;;;;;5088465;27;20697;-84
2024/01/02 03:29:28;;;;;;;32.00;10.98;;;;;;;;;;5103395;27;20070;-85
2024/01/02 03:31:54;;;;;;;43.30;10.88;;;;;;;;;;5128321;27;20099;-85
2024/01/02 03:34:20;;;;;;;35.67;11.25;;;;;;;;;;5128579;27;20077;-84
2024/01/02 03:36:46;;;;;;;45.38;11.77;;;;;;;;;;5113568;27;20050;-84
2024/01/02 03:39:12;;;;;;;32.60;10.00;;;;;;;;;;5109071;27;20039;-83
2024/01/02 03:41:38;;;;;;;31.77;9.55;;;;;;;;;;5106177;27;20065;-86
2024/01/02 03:44:05;;;;;;;30.67;11.27;;;;;;;;;;5108943;27;20046;-84
2024/01/02 03:46:31;;;;;;;23.80;7.93;;;;;;;;;;5109508;27;20045;-87
2024/01/02 03:48:57;;;;;;;33.15;11.35;;;;;;;;;;5108688;27;20047;-83
2024/01/02 03:51:23;;;;;;;25.60;7.50;;;;;;;;;;5091726;27;20065;-84
2024/01/02 03:53:49;;;;;;;32.85;10.13;;;;;;;;;;5092095;27;20043;-83
2024/01/02 03:56:16;;;;;;;25.67;8.60;;;;;;;;;;5098328;27;20058;-86
2024/01/02 03:58:42;;;;;;;24.85;7.43;;;;;;;;;;5108535;27;20047;-81
2024/01/02 04:01:09;;;;;;;27.10;9.57;;;;;;;;;;5106131;27;20494;-84
2024/01/02 04:03:35;;;;;;;32.75;10.65;;;;;;;;;;5111818;27;20122;-85
2024/01/02 04:06:01;;;;;;;19.95;8.38;;;;;;;;;;5105567;27;20039;-84
2024/01/02 04:08:27;;;;;;;28.60;9.68;;;;;;;;;;5109658;27;20047;-83
2024/01/02 04:10:53;;;;;;;23.98;8.93;;;;;;;;;;5118464;27;20403;-84
2024/01/02 04:13:19;;;;;;;27.13;8.63;;;;;;;;;;5117690;27;20034;-83
2024/01/02 04:15:45;;;;;;;32.70;10.65;;;;;;;;;;5115041;27;20046;-84
2024/01/02 04:18:11;;;;;;;28.80;9.68;;;;;;;;;;5122905;27;20050;-84
2024/01/02 04:20:37;;;;;;;34.38;12.20;;;;;;;;;;5116667;27;20039;-80
2024/01/02 04:23:04;;;;;;;23.35;9.65;;;;;;;;;;5105729;27;20415;-84
2024/01/02 04:25:30;;;;;;;22.05;8.63;;;;;;;;;;5107668;27;20070;-83
2024/01/02 04:27:56;;;;;;;24.55;9.30;;;;;;;;;;5111029;27;20657;-86
2024/01/02 04:30:23;;;;;;;26.73;9.90;;;;;;;;;;5120650;27;20051;-83
2024/01/02 04:32:49;;;;;;;31.15;9.05;;;;;;;;;;5108680;27;20138;-83
2024/01/02 04:35:15;;;;;;;22.75;9.18;;;;;;;;;;5111505;27;20038;-82
2024/01/02 04:37:41;;;;;;;26.38;9.48;;;;;;;;;;5128943;27;20376;-82
2024/01/02 04:40:10;;;;;;;24.35;8.35;;;;;;;;;;5113070;27;20418;-85
2024/01/02 04:42:37;;;;;;;25.95;8.32;;;;;;;;;;5129311;27;20503;-84
2024/01/02 04:45:03;;;;;;;50.40;9.80;;;5.70;99.90;;;;;;5129547;27;20142;-85
2024/01/02 04:47:29;;;;;;;34.25;9.65;;;5.60;99.90;;;;;;5100558;27;20107;-85
2024/01/02 04:49:56;;;;;;;73.75;11.82;;;;;;;;;;5093740;27;20038;-89
2024/01/02 04:52:22;;;;;;;26.27;6.13;;;;;;;;;;5101119;27;20045;-86
2024/01/02 04:54:48;;;;;;;18.40;6.75;;;;;;;;;;5090986;27;20412;-84
2024/01/02 04:57:16;;;;;;;23.83;6.65;;;5.80;99.90;;;;;;5091176;27;20057;-84
2024/01/02 04:59:42;;;;;;;24.30;8.55;;;;;;;;;;5098957;27;20039;-84
2024/01/02 05:02:08;;;;;;;25.70;7.43;;;;;;;;;;5128249;27;20139;-84
2024/01/02 05:04:34;;;;;;;26.48;7.47;;;;;;;;;;5111304;27;20042;-84
2024/01/02 05:07:00;;;;;;;21.10;6.55;;;;;;;;;;5110842;27;20130;-85
2024/01/02 05:09:27;;;;;;;13.55;6.10;;;;;;;;;;5127988;27;20043;-86
2024/01/02 05:11:53;;;;;;;22.95;7.28;;;;;;;;;;5097268;27;20043;-88
2024/01/02 05:14:19;;;;;;;12.50;5.60;;;;;;;;;;5107908;27;20043;-85
2024/01/02 05:16:45;;;;;;;18.95;6.05;;;5.60;99.90;;;;;;5090771;27;20042;-85
2024/01/02 05:19:11;;;;;;;16.20;5.72;;;5.80;99.90;;;;;;5090288;27;20039;-85
2024/01/02 05:21:37;;;;;;;21.33;5.72;;;5.80;99.90;;;;;;5090116;27;20035;-85
2024/01/02 05:24:05;;;;;;;21.80;5.95;;;5.50;99.90;;;;;;5105113;27;20041;-85
2024/01/02 05:26:31;;;;;;;19.42;6.10;;;;;;;;;;5127114;27;20506;-84
2024/01/02 05:28:57;;;;;;;16.35;6.25;;;;;;;;;;5109431;27;20050;-84
2024/01/02 05:31:24;;;;;;;15.55;6.22;;;;;;;;;;5138618;27;20053;-83
2024/01/02 05:33:50;;;;;;;23.92;6.70;;;;;;;;;;5090230;27;20039;-84
2024/01/02 05:36:16;;;;;;;21.25;7.95;;;;;;;;;;5107095;27;20047;-84
2024/01/02 05:38:42;;;;;;;18.90;6.80;;;;;;;;;;5104376;27;20039;-84
2024/01/02 05:41:08;;;;;;;17.50;6.28;;;5.60;99.90;;;;;;5091442;27;20039;-83
2024/01/02 05:43:34;;;;;;;19.60;6.65;;;5.60;99.90;;;;;;5090573;27;20127;-85
2024/01/02 05:46:01;;;;;;;16.95;6.25;;;;;;;;;;5090254;27;20095;-86
2024/01/02 05:48:27;;;;;;;15.05;5.95;;;;;;;;;;5089715;27;20080;-87
2024/01/02 05:50:53;;;;;;;17.40;6.32;;;;;;;;;;5122186;27;20579;-83
2024/01/02 05:53:20;;;;;;;15.65;6.63;;;;;;;;;;5107537;27;20046;-85
2024/01/02 05:55:46;;;;;;;12.35;5.45;;;;;;;;;;5090099;27;20054;-84
2024/01/02 05:58:12;;;;;;;18.23;6.68;;;;;;;;;;5094914;27;20043;-85
2024/01/02 06:00:38;;;;;;;11.55;5.15;;;;;;;;;;5106674;27;20039;-84
2024/01/02 06:03:04;;;;;;;10.52;4.85;;;;;;;;;;5126605;27;20094;-84
2024/01/02 06:05:30;;;;;;;13.73;4.25;;;;;;;;;;5109104;27;20686;-82
2024/01/02 06:07:57;;;;;;;12.85;5.22;;;;;;;;;;5095384;27;20130;-83
2024/01/02 06:10:23;;;;;;;9.15;3.92;;;;;;;;;;5108134;27;20051;-83
2024/01/02 06:12:51;;;;;;;8.40;3.60;;;5.80;99.90;;;;;;5113977;27;20039;-83
2024/01/02 06:15:20;;;;;;;12.90;4.20;;;5.90;99.90;;;;;;5113529;27;20043;-85
2024/01/02 06:17:46;;;;;;;11.73;4.53;;;;;;;;;;5112044;27;20095;-85
2024/01/02 06:20:12;;;;;;;10.18;4.15;;;5.80;99.90;;;;;;5116846;27;20134;-86
2024/01/02 06:22:38;;;;;;;10.27;4.13;;;;;;;;;;5110347;27;20121;-83
2024/01/02 06:25:10;;;;;;;13.82;4.22;;;5.80;99.90;;;;;;5105035;27;20039;-85
2024/01/02 06:27:36;;;;;;;10.32;3.60;;;;;;;;;;5111105;27;20053;-83
2024/01/02 06:30:03;;;;;;;10.20;3.60;;;5.80;99.90;;;;;;5112347;27;20042;-83
2024/01/02 06:32:31;;;;;;;9.80;3.83;;;;;;;;;;5089938;27;20047;-82
2024/01/02 06:34:57;;;;;;;11.68;3.55;;;;;;;;;;5088581;27;20047;-81
2024/01/02 06:37:26;;;;;;;11.23;4.30;;;;;;;;;;5103050;27;20038;-83
2024/01/02 06:39:52;;;;;;;10.93;4.70;;;;;;;;;;5089559;27;20128;-82
2024/01/02 06:42:18;;;;;;;9.35;3.80;;;;;;;;;;5096586;27;20042;-83
2024/01/02 06:44:45;;;;;;;10.52;4.25;;;;;;;;;;5106843;27;20039;-82
2024/01/02 06:47:11;;;;;;;11.07;4.82;;;5.80;99.90;;;;;;5104409;27;20038;-81
2024/01/02 06:49:37;;;;;;;10.40;4.47;;;6.00;99.90;;;;;;5096691;27;20042;-84
2024/01/02 06:52:03;;;;;;;11.48;4.80;;;5.80;99.90;;;;;;5105755;27;20051;-84
2024/01/02 06:54:29;;;;;;;8.02;3.67;;;;;;;;;;5089391;27;20046;-83
2024/01/02 06:56:56;;;;;;;9.75;3.75;;;;;;;;;;5122366;27;20463;-85
2024/01/02 06:59:22;;;;;;;10.63;4.10;;;5.90;99.90;;;;;;5108859;27;20044;-84
2024/01/02 07:01:48;;;;;;;6.75;3.60;;;;;;;;;;5125092;27;20483;-83
2024/01/02 07:04:14;;;;;;;9.02;4.65;;;;;;;;;;5110956;27;20563;-82
2024/01/02 07:06:41;;;;;;;11.18;4.00;;;;;;;;;;5118668;27;20043;-82
2024/01/02 07:09:07;;;;;;;7.40;3.42;;;;;;;;;;5088421;28;20134;-83
2024/01/02 07:11:33;;;;;;;12.57;4.07;;;;;;;;;;5101220;28;20046;-83
2024/01/02 07:13:59;;;;;;;12.85;4.13;;;;;;;;;;5087996;28;20039;-83
2024/01/02 07:16:25;;;;;;;8.77;3.50;;;;;;;;;;5115508;27;20034;-83
2024/01/02 07:18:51;;;;;;;9.48;3.58;;;;;;;;;;5107786;27;20050;-82
2024/01/02 07:21:17;;;;;;;12.75;3.55;;;6.00;99.90;;;;;;5124893;27;20049;-83
2024/01/02 07:23:44;;;;;;;8.80;3.42;;;;;;;;;;5106373;27;20047;-83
2024/01/02 07:26:11;;;;;;;9.48;3.50;;;5.90;99.90;;;;;;5088003;27;20087;-83
2024/01/02 07:28:39;;;;;;;10.13;3.53;;;5.90;99.90;;;;;;5089116;27;20054;-84
2024/01/02 07:31:06;;;;;;;9.52;2.80;;;;;;;;;;5107165;27;20034;-83
2024/01/02 07:33:31;;;;;;;11.60;2.90;;;6.00;99.90;;;;;;5101395;27;20043;-84
2024/01/02 07:36:00;;;;;;;6.63;2.58;;;6.10;99.90;;;;;;5094932;28;20073;-83
2024/01/02 07:38:30;;;;;;;9.43;3.60;;;6.10;99.90;;;;;;5087667;28;20468;-83
2024/01/02 07:40:56;;;;;;;12.10;3.50;;;6.10;99.90;;;;;;5089436;28;20392;-83
2024/01/02 07:43:22;;;;;;;10.57;3.58;;;6.10;99.90;;;;;;5106432;28;20039;-83
2024/01/02 07:45:49;;;;;;;10.07;3.67;;;;;;;;;;5102547;28;20104;-85
2024/01/02 07:48:15;;;;;;;8.27;3.67;;;;;;;;;;5105817;27;20121;-83
2024/01/02 07:50:41;;;;;;;12.98;4.57;;;;;;;;;;5111880;27;20046;-82
2024/01/02 07:53:07;;;;;;;11.38;4.05;;;;;;;;;;5124656;27;20077;-83
2024/01/02 07:55:33;;;;;;;10.55;3.58;;;;;;;;;;5107990;27;20499;-84
2024/01/02 07:58:02;;;;;;;9.70;4.35;;;6.20;99.90;;;;;;5116638;27;20035;-83
2024/01/02 08:00:28;;;;;;;12.63;4.85;;;6.00;99.90;;;;;;5104949;27;20639;-83
2024/01/02 08:02:54;;;;;;;16.48;5.30;;;5.90;99.90;;;;;;5112592;27;20046;-82
2024/01/02 08:05:20;;;;;;;33.88;7.15;;;6.60;99.90;;;;;;5108080;27;20043;-84
2024/01/02 08:07:46;;;;;;;17.17;5.63;;;;;;;;;;5095079;28;20039;-84
2024/01/02 08:10:12;;;;;;;19.30;5.68;;;;;;;;;;5105122;28;20046;-83
2024/01/02 08:12:38;;;;;;;29.30;6.57;;;;;;;;;;5096427;27;20050;-83
2024/01/02 08:15:05;;;;;;;19.60;6.47;;;;;;;;;;5118340;27;20500;-83
2024/01/02 08:17:31;;;;;;;19.83;6.35;;;;;;;;;;5107512;27;20506;-82
2024/01/02 08:19:57;;;;;;;24.48;6.88;;;;;;;;;;5107826;27;20093;-83
2024/01/02 08:22:23;;;;;;;24.92;7.20;;;;;;;;;;5105694;27;20042;-83
2024/01/02 08:24:49;;;;;;;26.65;6.57;;;;;;;;;;5104223;27;20124;-83
2024/01/02 08:27:16;;;;;;;19.45;6.22;;;;;;;;;;5092752;27;20464;-83
2024/01/02 08:29:42;;;;;;;25.85;6.95;;;;;;;;;;5107265;27;20086;-83
2024/01/02 08:32:08;;;;;;;20.90;6.88;;;;;;;;;;5104887;27;20045;-83
2024/01/02 08:34:34;;;;;;;30.55;7.97;;;;;;;;;;5091554;27;20149;-83
2024/01/02 08:37:00;;;;;;;31.40;8.95;;;;;;;;;;5122164;27;20043;-84
2024/01/02 08:39:26;;;;;;;28.17;8.13;;;;;;;;;;5092941;27;20567;-88
2024/01/02 08:41:53;;;;;;;30.95;9.27;;;;;;;;;;5105174;27;20090;-86
2024/01/02 08:44:19;;;;;;;33.05;9.25;;;;;;;;;;5110086;27;20095;-83
2024/01/02 08:46:45;;;;;;;31.33;9.70;;;;;;;;;;5100948;27;20480;-85
2024/01/02 08:49:12;;;;;;;32.83;9.90;;;;;;;;;;5102780;27;20043;-86
2024/01/02 08:51:39;;;;;;;41.67;11.80;;;;;;;;;;5126233;27;20150;-86
2024/01/02 08:54:05;;;;;;;38.20;9.88;;;;;;;;;;5099007;27;20050;-89
2024/01/02 08:56:31;;;;;;;32.85;10.13;;;;;;;;;;5109214;27;20043;-85
2024/01/02 08:58:57;;;;;;;38.58;10.70;;;;;;;;;;5092065;27;20134;-87
2024/01/02 09:01:24;;;;;;;43.72;10.88;;;;;;;;;;5109758;27;21153;-86
2024/01/02 09:03:50;;;;;;;37.95;10.40;;;;;;;;;;5110918;27;20038;-87
2024/01/02 09:06:20;;;;;;;37.53;9.75;;;8.10;99.90;;;;;;5114748;27;20043;-84
2024/01/02 09:08:46;;;;;;;35.17;10.38;;;;;;;;;;5103895;27;20496;-84
2024/01/02 09:11:13;;;;;;;35.38;10.50;;;7.30;99.90;;;;;;5123294;27;20151;-86
2024/01/02 09:13:39;;;;;;;35.30;9.18;;;;;;;;;;5102810;27;20046;-86
2024/01/02 09:16:06;;;;;;;36.38;8.95;;;8.40;99.90;;;;;;5114489;27;20669;-87
2024/01/02 09:18:32;;;;;;;33.20;9.48;;;;;;;;;;5104072;27;20039;-85
2024/01/02 09:20:58;;;;;;;37.80;9.32;;;;;;;;;;5118204;27;20035;-85
2024/01/02 09:23:25;;;;;;;27.70;7.70;;;;;;;;;;5110657;27;20039;-86
2024/01/02 09:25:51;;;;;;;35.78;8.07;;;;;;;;;;5102265;27;20045;-84
2024/01/02 09:28:20;;;;;;;38.20;8.50;;;8.90;99.90;;;;;;5090121;27;20054;-85
2024/01/02 09:30:46;;;;;;;31.70;6.90;;;;;;;;;;5102668;27;20399;-88
2024/01/02 09:33:13;;;;;;;32.05;6.93;;;;;;;;;;5118555;27;20131;-84
2024/01/02 09:35:42;;;;;;;35.28;7.40;;;9.10;99.90;;;;;;5090676;27;20047;-84
2024/01/02 09:38:08;;;;;;;37.28;7.38;;;;;;;;;;5078088;28;20465;-85
2024/01/02 09:41:01;;;;;;;36.08;6.97;;;9.10;99.90;;;;;;5088416;27;20840;-88
2024/01/02 09:43:27;;;;;;;39.38;8.02;;;;;;;;;;5076991;27;20202;-85
2024/01/02 09:46:02;;;;;;;44.40;7.90;;;9.10;99.90;;;;;;5083316;27;20598;-85
2024/01/02 09:48:38;;;;;;;31.83;7.78;;;;;;;;;;5112302;27;20094;-86
2024/01/02 09:51:04;;;;;;;39.75;7.72;;;9.10;99.90;;;;;;5092959;27;20043;-86
2024/01/02 09:54:18;;;;;;;42.10;7.35;;;9.30;99.90;;;;;;5096435;27;20430;-84
2024/01/02 09:57:11;;;;;;;32.30;7.47;;;9.30;99.90;;;;;;5089091;27;20085;-85
2024/01/02 09:59:37;;;;;;;37.72;7.15;;;;;;;;;;5119029;27;20880;-87
2024/01/02 10:02:18;;;;;;;40.40;7.40;;;9.40;99.90;;;;;;5102359;27;20035;-85
2024/01/02 10:04:55;;;;;;;41.78;6.70;;;9.40;99.90;;;;;;5097071;27;20527;-86
2024/01/02 10:07:21;;;;;;;32.53;7.75;;;;;;;;;;5089739;27;20125;-86
2024/01/02 10:09:47;;;;;;;29.30;5.50;;;;;;;;;;5106931;27;20039;-88
2024/01/02 10:12:26;;;;;;;30.98;6.20;;;;;;;;;;5096994;27;20035;-84
2024/01/02 10:15:00;;;;;;;34.70;5.32;;;9.50;99.90;;;;;;5105024;27;20038;-86
2024/01/02 10:17:52;;;;;;;32.28;6.53;;;9.50;99.90;;;;;;5114923;27;20067;-85
2024/01/02 10:20:21;;;;;;;44.10;5.03;;;9.80;99.90;;;;;;5124862;27;20034;-83
2024/01/02 10:23:10;;;;;;;44.88;6.55;;;9.60;99.90;;;;;;5093587;27;20043;-83
2024/01/02 10:25:37;;;;;;;31.17;5.53;;;;;;;;;;5113885;27;20476;-85
2024/01/02 10:28:25;;;;;;;30.45;4.90;;;;;;;;;;5087135;27;20304;-86
2024/01/02 10:31:25;;;;;;;38.95;5.75;;;9.70;99.90;;;;;;5082818;27;20042;-85
2024/01/02 10:33:58;;;;;;;34.97;4.82;;;;;;;;;;5093666;27;20074;-86
2024/01/02 10:36:26;;;;;;;26.90;3.20;;;10.00;99.90;;;;;;5109599;27;20054;-85
2024/01/02 10:38:58;;;;;;;41.00;3.67;;;;;;;;;;5106932;28;20055;-84
2024/01/02 10:41:40;;;;;;;40.75;6.70;;;9.60;99.90;;;;;;5098087;27;20039;-85
2024/01/02 10:44:12;;;;;;;34.00;4.95;;;9.80;99.90;;;;;;5104952;27;20117;-83
2024/01/02 10:46:47;;;;;;;34.35;4.63;;;9.70;99.90;;;;;;5096147;27;20081;-86
2024/01/02 10:49:36;;;;;;;32.17;4.68;;;9.80;99.90;;;;;;5108844;27;20613;-86
2024/01/02 10:52:40;;;;;;;32.47;3.33;;;9.80;99.90;;;;;;5117732;27;20058;-84
2024/01/02 10:55:10;;;;;;;33.67;5.03;;;9.90;99.90;;;;;;5065940;28;20051;-84
2024/01/02 10:57:54;;;;;;;37.65;5.43;;;9.90;99.90;;;;;;5046663;28;20644;-84
2024/01/02 11:00:26;;;;;;;37.90;5.63;;;9.90;99.90;;;;;;5047479;28;20160;-84
2024/01/02 11:03:00;;;;;;;22.73;4.45;;;9.90;99.90;;;;;;5037536;28;20048;-84
2024/01/02 11:05:49;;;;;;;43.17;5.53;;;10.00;99.90;;;;;;5046744;28;20239;-86
2024/01/02 11:09:03;;;;;;;30.52;5.28;;;10.10;99.90;;;;;;5046430;28;20055;-85
2024/01/02 11:11:33;;;;;;;28.15;3.58;;;10.10;99.90;;;;;;5043294;28;20096;-84
2024/01/02 11:14:00;;;;;;;33.50;4.53;;;10.10;99.90;;;;;;5046528;28;20098;-84
2024/01/02 11:16:28;;;;;;;30.77;3.55;;;10.00;99.90;;;;;;5072947;28;20039;-84
2024/01/02 11:19:00;;;;;;;44.30;3.80;;;10.20;99.90;;;;;;5065322;28;20043;-83
2024/01/02 11:21:36;;;;;;;29.55;3.83;;;;;;;;;;5082065;28;20054;-84
2024/01/02 11:24:04;;;;;;;26.95;3.38;;;;;;;;;;5062598;28;20093;-83
2024/01/02 11:26:31;;;;;;;37.80;4.22;;;;;;;;;;5082011;27;20705;-83
2024/01/02 11:29:04;;;;;;;33.42;4.75;;;10.30;99.90;;;;;;5107734;27;20052;-83
2024/01/02 11:31:35;;;;;;;39.33;5.00;;;10.40;99.90;;;;;;5108395;27;20139;-82
2024/01/02 11:34:06;;;;;;;26.70;3.70;;;10.30;99.90;;;;;;5109031;27;20559;-82
2024/01/02 11:36:44;;;;;;;33.67;4.47;;;10.30;99.90;;;;;;5095461;27;20411;-83
2024/01/02 11:39:18;;;;;;;33.67;3.88;;;10.40;99.90;;;;;;5122734;27;20050;-82
2024/01/02 11:42:08;;;;;;;32.53;4.20;;;10.30;99.90;;;;;;5107768;28;20460;-83
2024/01/02 11:44:48;;;;;;;25.02;4.50;;;10.30;99.90;;;;;;5106435;27;20392;-82
2024/01/02 11:47:34;;;;;;;33.33;4.97;;;10.30;99.90;;;;;;5109838;27;20042;-82
2024/01/02 11:50:03;;;;;;;35.40;3.83;;;;;;;;;;5108681;27;20202;-84
2024/01/02 11:52:31;;;;;;;32.00;5.18;;;;;;;;;;5126289;27;20732;-82
2024/01/02 11:55:10;;;;;;;35.78;5.72;;;;;;;;;;5091782;27;20480;-82
2024/01/02 11:58:03;;;;;;;28.92;3.60;;;10.30;99.90;;;;;;5089472;27;20039;-83
2024/01/02 12:00:32;;;;;;;34.45;4.68;;;;;;;;;;5108993;27;20828;-83
2024/01/02 12:03:07;;;;;;;34.03;4.47;;;;;;;;;;5099536;27;20129;-83
2024/01/02 12:05:42;;;;;;;40.53;8.43;;;10.30;99.90;;;;;;5094330;27;20500;-84
2024/01/02 12:08:15;;;;;;;35.55;5.57;;;10.20;99.90;;;;;;5111349;27;20039;-84
2024/01/02 12:10:49;;;;;;;41.97;5.38;;;10.20;99.90;;;;;;5098096;27;20078;-82
2024/01/02 12:13:33;;;;;;;37.35;5.82;;;10.20;99.90;;;;;;5112750;27;20482;-82
2024/01/02 12:16:03;;;;;;;41.17;6.00;;;;;;;;;;5112572;27;20054;-82
2024/01/02 12:18:33;;;;;;;37.67;5.43;;;;;;;;;;5110750;27;20354;-83
2024/01/02 12:21:09;;;;;;;55.67;8.35;;;10.10;99.90;;;;;;5097184;27;20039;-82
2024/01/02 12:23:36;;;;;;;52.40;8.20;;;;;;;;;;5102918;27;20050;-83
2024/01/02 12:26:05;;;;;;;52.30;6.78;;;10.10;99.90;;;;;;5103443;27;20038;-82
2024/01/02 12:28:37;;;;;;;39.00;7.18;;;10.10;99.90;;;;;;5094294;27;20050;-82
2024/01/02 12:31:12;;;;;;;53.35;9.20;;;;;;;;;;5092069;27;20068;-82
2024/01/02 12:33:41;;;;;;;52.90;8.30;;;;;;;;;;5117822;27;20096;-82
2024/01/02 12:36:13;;;;;;;50.00;7.43;;;;;;;;;;5090433;27;20043;-82
2024/01/02 12:38:47;;;;;;;;;;;10.00;99.90;;;;;;5091237;27;20117;-82
2024/01/02 12:41:28;;;;;;;48.60;8.23;;;10.00;99.90;;;;;;5090743;27;19975;-82
2024/01/02 12:43:59;;;;;;;52.80;10.43;;;10.00;99.90;;;;;;5107503;27;20568;-82
2024/01/02 12:46:47;;;;;;;54.75;10.43;;;10.00;99.90;;;;;;5084740;27;20035;-83
2024/01/02 12:49:17;;;;;;;54.13;10.35;;;10.00;99.90;;;;;;5091565;27;21293;-82
2024/01/02 12:51:48;;;;;;;57.53;10.82;;;9.90;99.90;;;;;;5123533;27;20043;-81
2024/01/02 12:54:19;;;;;;;57.15;10.00;;;9.90;99.90;;;;;;5110180;27;20053;-82
2024/01/02 12:56:55;;;;;;;65.20;12.15;;;10.00;99.90;;;;;;5101573;27;20138;-82
2024/01/02 12:59:28;;;;;;;52.35;10.93;;;10.00;99.90;;;;;;5107299;27;20051;-82
2024/01/02 13:01:54;;;;;;;68.45;11.68;;;;;;;;;;5106324;27;20824;-82
2024/01/02 13:04:21;;;;;;;60.95;12.10;;;10.00;99.90;;;;;;5117024;27;20047;-83
2024/01/02 13:06:47;;;;;;;69.25;12.55;;;;;;;;;;5107508;27;20104;-83
2024/01/02 13:09:17;;;;;;;52.10;11.70;;;9.90;99.90;;;;;;5090007;27;20277;-83
2024/01/02 13:11:43;;;;;;;67.45;11.68;;;;;;;;;;5090131;27;20054;-83
2024/01/02 13:14:10;;;;;;;57.30;11.32;;;9.80;99.90;;;;;;5106508;27;20043;-83
2024/01/02 13:16:36;;;;;;;65.43;14.63;;;;;;;;;;5089763;27;20129;-85
2024/01/02 13:19:02;;;;;;;67.20;10.85;;;;;;;;;;5099686;27;20039;-82
2024/01/02 13:21:28;;;;;;;59.40;11.93;;;10.10;99.90;;;;;;5089336;27;20773;-82
2024/01/02 13:23:58;;;;;;;63.92;11.77;;;9.80;99.90;;;;;;5090063;27;20050;-84
2024/01/02 13:26:39;;;;;;;71.20;15.13;;;9.80;99.90;;;;;;5106197;27;20035;-83
2024/01/02 13:29:12;;;;;;;57.63;13.50;;;9.80;99.90;;;;;;5089409;27;20403;-83
2024/01/02 13:31:43;;;;;;;86.55;18.83;;;9.80;99.90;;;;;;5089417;27;20139;-82
2024/01/02 13:34:09;;;;;;;71.40;16.70;;;;;;;;;;5083010;27;20091;-83
2024/01/02 13:36:56;;;;;;;75.95;17.48;;;9.90;99.90;;;;;;5126403;27;20050;-82
2024/01/02 13:39:35;;;;;;;65.32;18.15;;;9.80;99.90;;;;;;5124541;27;20047;-83
2024/01/02 13:42:02;;;;;;;77.78;16.77;;;9.80;99.90;;;;;;5089475;27;20042;-83
2024/01/02 13:44:48;;;;;;;94.32;15.82;;;9.80;99.90;;;;;;5106618;27;20369;-83
2024/01/02 13:47:15;;;;;;;75.97;15.45;;;;;;;;;;5089765;27;20377;-82
2024/01/02 13:49:47;;;;;;;61.88;12.70;;;9.80;99.90;;;;;;5107308;27;20496;-83
2024/01/02 13:52:33;;;;;;;55.67;12.20;;;9.80;99.90;;;;;;5089998;27;20035;-82
2024/01/02 13:55:00;;;;;;;66.72;13.63;;;9.80;99.90;;;;;;5125667;27;20048;-83
2024/01/02 13:57:34;;;;;;;82.90;14.60;;;9.80;99.90;;;;;;5108788;27;20082;-83